createdAt,value
2019-05-20T00:02:23.162Z,12.30
2019-05-20T00:04:38.260Z,13.58
2019-05-20T00:07:06.515Z,12.43
2019-05-20T00:09:34.792Z,12.60
2019-05-20T00:12:03.045Z,12.90
2019-05-20T00:14:31.333Z,13.25
2019-05-20T00:16:59.593Z,13.08
2019-05-20T00:19:27.856Z,12.95
2019-05-20T00:21:56.117Z,13.58
2019-05-20T00:24:24.374Z,14.43
2019-05-20T00:26:52.632Z,14.58
2019-05-20T00:29:20.891Z,13.68
2019-05-20T00:31:49.158Z,14.00
2019-05-20T00:34:17.413Z,13.83
2019-05-20T00:36:45.697Z,13.43
2019-05-20T00:39:20.513Z,13.35
2019-05-20T00:41:48.846Z,14.63
2019-05-20T00:44:17.532Z,15.45
2019-05-20T00:46:45.795Z,15.28
2019-05-20T00:49:14.068Z,15.23
2019-05-20T00:51:42.336Z,15.93
2019-05-20T00:54:10.581Z,14.18
2019-05-20T00:56:38.866Z,15.65
2019-05-20T00:59:07.109Z,15.58
2019-05-20T01:01:35.370Z,16.77
2019-05-20T01:04:03.639Z,17.45
2019-05-20T01:06:31.901Z,14.83
2019-05-20T01:09:00.166Z,13.98
2019-05-20T01:11:28.433Z,13.50
2019-05-20T01:13:56.696Z,13.68
2019-05-20T01:16:24.940Z,14.15
2019-05-20T01:18:53.193Z,12.18
2019-05-20T01:21:21.469Z,13.40
2019-05-20T01:23:49.721Z,13.25
2019-05-20T01:26:17.985Z,12.65
2019-05-20T01:28:46.255Z,13.38
2019-05-20T01:31:14.588Z,12.10
2019-05-20T01:33:42.842Z,12.47
2019-05-20T01:36:11.113Z,12.90
2019-05-20T01:38:39.377Z,12.73
2019-05-20T01:41:07.641Z,13.20
2019-05-20T01:43:35.919Z,14.00
2019-05-20T01:46:04.245Z,16.05
2019-05-20T01:48:32.518Z,16.02
2019-05-20T01:51:00.812Z,15.85
2019-05-20T01:53:29.125Z,15.90
2019-05-20T01:55:57.389Z,17.23
2019-05-20T01:58:25.645Z,16.32
2019-05-20T02:00:53.937Z,16.15
2019-05-20T02:03:31.788Z,15.75
2019-05-20T02:05:52.232Z,15.35
2019-05-20T02:08:20.559Z,16.10
2019-05-20T02:10:48.820Z,16.07
2019-05-20T02:13:17.069Z,16.77
2019-05-20T02:15:58.932Z,16.02
2019-05-20T02:18:27.187Z,15.35
2019-05-20T02:20:55.447Z,16.30
2019-05-20T02:23:23.708Z,15.45
2019-05-20T02:25:52.051Z,15.72
2019-05-20T02:28:20.301Z,15.50
2019-05-20T02:30:48.565Z,14.50
2019-05-20T02:33:16.913Z,15.13
2019-05-20T02:35:45.229Z,15.05
2019-05-20T02:38:13.497Z,16.90
2019-05-20T02:40:41.744Z,17.87
2019-05-20T02:43:10.009Z,19.30
2019-05-20T02:45:38.261Z,18.62
2019-05-20T02:48:06.525Z,18.30
2019-05-20T02:50:34.777Z,18.15
2019-05-20T02:53:03.123Z,18.92
2019-05-20T02:55:31.378Z,18.00
2019-05-20T02:57:59.639Z,18.87
2019-05-20T03:00:27.886Z,19.32
2019-05-20T03:02:56.157Z,19.50
2019-05-20T03:05:24.401Z,18.80
2019-05-20T03:07:52.678Z,19.25
2019-05-20T03:10:20.937Z,18.70
2019-05-20T03:12:49.207Z,18.62
2019-05-20T03:15:17.732Z,19.90
2019-05-20T03:17:46.062Z,19.95
2019-05-20T03:20:14.320Z,19.17
2019-05-20T03:22:42.583Z,19.70
2019-05-20T03:25:10.829Z,19.70
2019-05-20T03:27:39.084Z,19.05
2019-05-20T03:30:08.004Z,19.85
2019-05-20T03:32:36.261Z,19.35
2019-05-20T03:35:06.627Z,18.55
2019-05-20T03:37:34.921Z,18.87
2019-05-20T03:40:04.555Z,19.62
2019-05-20T03:42:32.826Z,18.75
2019-05-20T03:45:01.080Z,18.42
2019-05-20T03:47:29.342Z,18.65
2019-05-20T03:49:57.664Z,18.55
2019-05-20T03:52:25.940Z,19.32
2019-05-20T03:54:54.263Z,19.05
2019-05-20T03:57:22.604Z,19.15
2019-05-20T03:59:50.918Z,19.55
2019-05-20T04:02:19.258Z,19.95
2019-05-20T04:05:01.238Z,19.52
2019-05-20T04:07:17.562Z,19.60
2019-05-20T04:09:45.809Z,19.05
2019-05-20T04:12:14.072Z,20.30
2019-05-20T04:14:42.318Z,20.35
2019-05-20T04:17:10.573Z,19.62
2019-05-20T04:19:38.821Z,19.65
2019-05-20T04:22:07.094Z,19.80
2019-05-20T04:24:35.406Z,19.70
2019-05-20T04:27:05.142Z,20.20
2019-05-20T04:29:33.402Z,21.27
2019-05-20T04:32:01.645Z,20.82
2019-05-20T04:34:29.914Z,21.20
2019-05-20T04:36:58.168Z,22.37
2019-05-20T04:39:26.419Z,21.42
2019-05-20T04:41:54.668Z,21.82
2019-05-20T04:44:22.920Z,20.90
2019-05-20T04:46:51.164Z,22.98
2019-05-20T04:49:19.424Z,23.47
2019-05-20T04:51:47.673Z,24.50
2019-05-20T04:54:15.939Z,23.52
2019-05-20T04:56:44.182Z,24.12
2019-05-20T04:59:12.445Z,23.60
2019-05-20T05:01:40.689Z,23.92
2019-05-20T05:04:08.950Z,23.42
2019-05-20T05:06:37.200Z,22.90
2019-05-20T05:09:06.792Z,23.30
2019-05-20T05:11:35.036Z,22.40
2019-05-20T05:14:03.301Z,23.00
2019-05-20T05:16:31.552Z,22.42
2019-05-20T05:18:59.801Z,21.27
2019-05-20T05:21:28.048Z,20.72
2019-05-20T05:23:59.379Z,20.77
2019-05-20T05:26:26.357Z,20.15
2019-05-20T05:28:54.608Z,21.87
2019-05-20T05:31:22.868Z,20.75
2019-05-20T05:33:54.256Z,20.90
2019-05-20T05:36:21.100Z,20.72
2019-05-20T05:38:49.361Z,21.00
2019-05-20T05:41:17.609Z,20.55
2019-05-20T05:43:45.871Z,22.00
2019-05-20T05:46:14.112Z,21.20
2019-05-20T05:48:42.369Z,20.68
2019-05-20T05:51:10.617Z,22.20
2019-05-20T05:53:38.885Z,21.05
2019-05-20T05:56:07.133Z,21.05
2019-05-20T05:58:35.396Z,21.45
2019-05-20T06:01:03.654Z,20.45
2019-05-20T06:03:31.906Z,20.45
2019-05-20T06:06:11.488Z,22.17
2019-05-20T06:08:30.135Z,21.70
2019-05-20T06:10:58.382Z,20.85
2019-05-20T06:13:26.641Z,22.37
2019-05-20T06:15:54.892Z,21.15
2019-05-20T06:18:23.164Z,20.08
2019-05-20T06:20:51.404Z,22.70
2019-05-20T06:23:19.671Z,21.20
2019-05-20T06:25:47.986Z,21.45
2019-05-20T06:28:16.234Z,21.93
2019-05-20T06:30:45.433Z,20.75
2019-05-20T06:33:13.683Z,21.57
2019-05-20T06:35:41.938Z,21.42
2019-05-20T06:38:14.729Z,21.95
2019-05-20T06:40:42.994Z,22.15
2019-05-20T06:43:11.245Z,21.60
2019-05-20T06:45:39.500Z,21.62
2019-05-20T06:48:07.753Z,22.22
2019-05-20T06:50:36.038Z,20.57
2019-05-20T06:53:04.281Z,20.88
2019-05-20T06:55:32.988Z,20.48
2019-05-20T06:58:01.273Z,21.48
2019-05-20T07:00:53.498Z,21.77
2019-05-20T07:03:21.753Z,20.60
2019-05-20T07:05:50.008Z,21.00
2019-05-20T07:08:18.281Z,20.77
2019-05-20T07:10:46.602Z,24.67
2019-05-20T07:13:16.253Z,24.60
2019-05-20T07:15:45.006Z,25.68
2019-05-20T07:18:13.328Z,25.85
2019-05-20T07:20:41.584Z,26.60
2019-05-20T07:23:09.842Z,26.42
2019-05-20T07:25:38.151Z,26.50
2019-05-20T07:28:06.429Z,27.07
2019-05-20T07:30:34.694Z,27.55
2019-05-20T07:33:02.936Z,27.85
2019-05-20T07:35:31.495Z,28.02
2019-05-20T07:37:59.912Z,27.85
2019-05-20T07:40:32.026Z,27.37
2019-05-20T07:43:21.376Z,28.05
2019-05-20T07:45:49.632Z,28.45
2019-05-20T07:48:17.895Z,26.95
2019-05-20T07:50:46.230Z,30.23
2019-05-20T07:53:14.477Z,27.32
2019-05-20T07:55:58.116Z,27.77
2019-05-20T07:58:26.833Z,28.47
2019-05-20T08:00:55.183Z,29.45
2019-05-20T08:03:23.443Z,29.48
2019-05-20T08:05:51.705Z,29.12
2019-05-20T08:08:19.952Z,27.93
2019-05-20T08:10:48.281Z,27.85
2019-05-20T08:13:16.533Z,27.80
2019-05-20T08:15:44.793Z,28.80
2019-05-20T08:18:13.040Z,28.62
2019-05-20T08:20:41.301Z,29.98
2019-05-20T08:23:09.566Z,29.77
2019-05-20T08:25:37.908Z,29.85
2019-05-20T08:28:06.163Z,29.42
2019-05-20T08:30:38.472Z,30.05
2019-05-20T08:33:06.721Z,30.62
2019-05-20T08:35:34.982Z,30.52
2019-05-20T08:38:03.230Z,30.23
2019-05-20T08:40:31.491Z,31.42
2019-05-20T08:42:59.748Z,31.00
2019-05-20T08:45:28.013Z,32.38
2019-05-20T08:47:56.264Z,32.17
2019-05-20T08:50:24.520Z,31.25
2019-05-20T08:52:52.765Z,32.58
2019-05-20T08:55:21.034Z,32.35
2019-05-20T08:57:49.295Z,31.35
2019-05-20T09:00:24.059Z,33.02
2019-05-20T09:02:52.453Z,32.00
2019-05-20T09:05:20.697Z,33.83
2019-05-20T09:08:02.123Z,33.20
2019-05-20T09:10:18.934Z,32.15
2019-05-20T09:12:47.195Z,33.53
2019-05-20T09:15:17.016Z,32.03
2019-05-20T09:17:45.282Z,34.40
2019-05-20T09:20:13.619Z,32.58
2019-05-20T09:22:41.964Z,33.63
2019-05-20T09:25:10.566Z,32.28
2019-05-20T09:27:39.064Z,31.12
2019-05-20T09:30:07.486Z,33.30
2019-05-20T09:32:36.222Z,31.60
2019-05-20T09:35:06.728Z,32.93
2019-05-20T09:37:35.049Z,30.62
2019-05-20T09:40:03.378Z,31.48
2019-05-20T09:42:31.659Z,30.35
2019-05-20T09:45:03.140Z,31.73
2019-05-20T09:47:29.977Z,30.65
2019-05-20T09:49:58.227Z,30.57
2019-05-20T09:52:26.556Z,31.27
2019-05-20T09:54:54.808Z,31.00
2019-05-20T09:57:24.707Z,30.88
2019-05-20T09:59:53.032Z,31.12
2019-05-20T10:02:21.305Z,32.63
2019-05-20T10:04:49.561Z,30.82
2019-05-20T10:07:17.814Z,31.33
2019-05-20T10:09:46.064Z,32.83
2019-05-20T10:12:14.412Z,32.05
2019-05-20T10:14:42.733Z,33.90
2019-05-20T10:17:11.034Z,31.93
2019-05-20T10:19:39.325Z,31.17
2019-05-20T10:22:07.617Z,29.67
2019-05-20T10:24:35.874Z,30.10
2019-05-20T10:27:04.133Z,32.05
2019-05-20T10:29:32.556Z,32.50
2019-05-20T10:32:00.829Z,34.05
2019-05-20T10:34:29.139Z,34.48
2019-05-20T10:36:57.425Z,33.10
2019-05-20T10:39:25.720Z,32.45
2019-05-20T10:41:53.980Z,33.23
2019-05-20T10:44:22.236Z,31.45
2019-05-20T10:46:50.502Z,32.53
2019-05-20T10:49:18.816Z,31.15
2019-05-20T10:51:47.081Z,31.42
2019-05-20T10:54:15.329Z,28.45
2019-05-20T10:56:43.582Z,33.10
2019-05-20T10:59:12.422Z,32.23
2019-05-20T11:01:41.065Z,33.23
2019-05-20T11:04:09.324Z,33.83
2019-05-20T11:06:37.573Z,34.08
2019-05-20T11:09:13.930Z,30.17
2019-05-20T11:11:39.354Z,32.00
2019-05-20T11:14:06.253Z,33.35
2019-05-20T11:16:34.509Z,32.35
2019-05-20T11:19:02.891Z,30.82
2019-05-20T11:21:31.117Z,32.73
2019-05-20T11:23:59.370Z,32.58
2019-05-20T11:26:27.617Z,31.93
2019-05-20T11:28:55.880Z,31.90
2019-05-20T11:31:24.133Z,34.10
2019-05-20T11:33:52.391Z,31.80
2019-05-20T11:36:20.636Z,31.70
2019-05-20T11:38:48.900Z,32.20
2019-05-20T11:41:17.152Z,32.88
2019-05-20T11:43:45.412Z,35.08
2019-05-20T11:46:14.133Z,32.53
2019-05-20T11:48:42.395Z,35.73
2019-05-20T11:51:10.640Z,35.88
2019-05-20T11:53:38.900Z,36.50
2019-05-20T11:56:07.149Z,36.03
2019-05-20T11:58:35.408Z,34.48
2019-05-20T12:01:03.657Z,33.05
2019-05-20T12:03:31.914Z,35.48
2019-05-20T12:06:00.179Z,33.78
2019-05-20T12:08:28.512Z,36.35
2019-05-20T12:10:56.831Z,37.38
2019-05-20T12:13:25.164Z,36.93
2019-05-20T12:15:53.414Z,38.53
2019-05-20T12:18:21.688Z,39.03
2019-05-20T12:20:50.012Z,41.00
2019-05-20T12:23:18.323Z,42.83
2019-05-20T12:25:46.652Z,44.58
2019-05-20T12:28:14.947Z,43.00
2019-05-20T12:30:43.239Z,43.08
2019-05-20T12:33:19.709Z,43.02
2019-05-20T12:35:41.544Z,40.85
2019-05-20T12:38:09.821Z,41.20
2019-05-20T12:40:38.056Z,42.80
2019-05-20T12:43:06.317Z,43.48
2019-05-20T12:45:34.572Z,43.83
2019-05-20T12:48:02.825Z,43.40
2019-05-20T12:50:31.068Z,44.60
2019-05-20T12:52:59.340Z,44.60
2019-05-20T12:55:27.588Z,42.80
2019-05-20T12:57:55.837Z,43.00
2019-05-20T13:00:24.176Z,44.55
2019-05-20T13:02:52.433Z,42.00
2019-05-20T13:05:20.693Z,46.35
2019-05-20T13:07:48.941Z,44.95
2019-05-20T13:10:29.256Z,45.15
2019-05-20T13:12:47.255Z,45.48
2019-05-20T13:15:15.522Z,47.50
2019-05-20T13:17:45.190Z,46.48
2019-05-20T13:20:13.986Z,47.85
2019-05-20T13:22:42.231Z,48.17
2019-05-20T13:25:11.057Z,48.45
2019-05-20T13:27:39.300Z,47.33
2019-05-20T13:30:07.833Z,49.10
2019-05-20T13:32:36.084Z,52.13
2019-05-20T13:35:06.187Z,53.68
2019-05-20T13:37:34.445Z,50.67
2019-05-20T13:40:03.526Z,51.83
2019-05-20T13:42:32.109Z,52.30
2019-05-20T13:45:00.368Z,51.95
2019-05-20T13:47:28.638Z,52.95
2019-05-20T13:49:56.898Z,52.43
2019-05-20T13:52:25.153Z,52.30
2019-05-20T13:54:53.408Z,54.73
2019-05-20T13:57:21.669Z,53.25
2019-05-20T13:59:49.937Z,52.83
2019-05-20T14:02:18.206Z,53.63
2019-05-20T14:04:46.528Z,57.13
2019-05-20T14:07:14.774Z,56.48
2019-05-20T14:09:43.149Z,57.08
2019-05-20T14:12:11.767Z,53.87
2019-05-20T14:14:40.027Z,56.15
2019-05-20T14:17:08.276Z,50.15
2019-05-20T14:19:36.537Z,51.98
2019-05-20T14:22:04.786Z,53.05
2019-05-20T14:24:33.045Z,52.35
2019-05-20T14:27:01.303Z,52.58
2019-05-20T14:29:29.554Z,52.88
2019-05-20T14:31:57.820Z,51.65
2019-05-20T14:34:26.077Z,53.40
2019-05-20T14:36:54.333Z,51.85
2019-05-20T14:39:22.599Z,51.68
2019-05-20T14:41:50.847Z,53.05
2019-05-20T14:44:19.101Z,50.38
2019-05-20T14:46:47.350Z,51.48
2019-05-20T14:49:15.605Z,52.65
2019-05-20T14:51:43.864Z,51.18
2019-05-20T14:54:12.192Z,52.95
2019-05-20T14:56:40.440Z,53.92
2019-05-20T14:59:08.729Z,53.25
2019-05-20T15:01:37.051Z,53.60
2019-05-20T15:04:05.305Z,53.92
2019-05-20T15:06:33.575Z,53.23
2019-05-20T15:09:01.924Z,52.27
2019-05-20T15:11:38.272Z,54.33
2019-05-20T15:14:00.672Z,52.55
2019-05-20T15:16:29.261Z,53.35
2019-05-20T15:18:57.514Z,52.58
2019-05-20T15:21:28.999Z,55.17
2019-05-20T15:23:55.741Z,53.95
2019-05-20T15:26:24.068Z,54.18
2019-05-20T15:28:52.335Z,53.75
2019-05-20T15:31:20.676Z,53.92
2019-05-20T15:33:48.925Z,52.50
2019-05-20T15:36:17.255Z,54.08
2019-05-20T15:38:45.778Z,52.88
2019-05-20T15:41:14.041Z,55.63
2019-05-20T15:43:42.288Z,53.28
2019-05-20T15:46:10.545Z,53.75
2019-05-20T15:48:38.811Z,56.48
2019-05-20T15:51:07.139Z,54.98
2019-05-20T15:53:35.384Z,54.48
2019-05-20T15:56:03.720Z,54.50
2019-05-20T15:58:31.981Z,54.30
2019-05-20T16:01:00.244Z,54.35
2019-05-20T16:03:28.488Z,54.85
2019-05-20T16:05:59.713Z,54.67
2019-05-20T16:08:26.713Z,53.25
2019-05-20T16:10:54.982Z,53.38
2019-05-20T16:13:23.237Z,53.73
2019-05-20T16:15:51.492Z,53.55
2019-05-20T16:18:19.765Z,52.67
2019-05-20T16:20:48.018Z,54.08
2019-05-20T16:23:16.269Z,52.90
2019-05-20T16:25:45.355Z,55.12
2019-05-20T16:28:13.599Z,55.70
2019-05-20T16:30:42.225Z,51.20
2019-05-20T16:33:10.492Z,54.03
2019-05-20T16:35:38.814Z,55.17
2019-05-20T16:38:07.058Z,56.08
2019-05-20T16:40:35.323Z,56.68
2019-05-20T16:43:03.564Z,55.85
2019-05-20T16:45:31.824Z,55.98
2019-05-20T16:48:00.069Z,57.10
2019-05-20T16:50:28.328Z,58.40
2019-05-20T16:52:56.592Z,60.63
2019-05-20T16:55:24.841Z,56.15
2019-05-20T16:57:53.100Z,58.90
2019-05-20T17:00:31.383Z,59.18
2019-05-20T17:02:51.336Z,60.78
2019-05-20T17:05:19.600Z,64.00
2019-05-20T17:07:47.860Z,63.83
2019-05-20T17:10:16.208Z,66.65
2019-05-20T17:12:44.468Z,66.60
2019-05-20T17:15:12.721Z,65.35
2019-05-20T17:17:40.984Z,65.90
2019-05-20T17:20:09.722Z,68.47
2019-05-20T17:22:38.049Z,67.22
2019-05-20T17:25:07.070Z,68.17
2019-05-20T17:27:35.499Z,63.70
2019-05-20T17:30:06.171Z,64.53
2019-05-20T17:32:34.461Z,67.40
2019-05-20T17:35:02.777Z,74.22
2019-05-20T17:37:31.066Z,68.00
2019-05-20T17:39:59.388Z,69.10
2019-05-20T17:42:27.637Z,69.65
2019-05-20T17:44:55.895Z,69.22
2019-05-20T17:47:24.146Z,66.33
2019-05-20T17:49:52.512Z,66.07
2019-05-20T17:52:20.764Z,60.92
2019-05-20T17:54:49.067Z,59.27
2019-05-20T17:57:21.561Z,52.90
2019-05-20T17:59:49.804Z,52.35
2019-05-20T18:02:18.153Z,52.78
2019-05-20T18:04:46.585Z,41.83
2019-05-20T18:07:14.878Z,43.52
2019-05-20T18:09:47.497Z,45.30
2019-05-20T18:12:15.780Z,42.50
2019-05-20T18:14:45.668Z,35.63
2019-05-20T18:17:13.924Z,35.78
2019-05-20T18:19:42.176Z,31.65
2019-05-20T18:22:10.432Z,31.23
2019-05-20T18:24:38.673Z,31.68
2019-05-20T18:27:06.952Z,30.12
2019-05-20T18:29:35.205Z,31.17
2019-05-20T18:32:03.464Z,25.35
2019-05-20T18:34:31.767Z,27.48
2019-05-20T18:37:00.132Z,25.97
2019-05-20T18:39:28.420Z,25.15
2019-05-20T18:41:58.341Z,24.20
2019-05-20T18:44:26.846Z,21.27
2019-05-20T18:46:55.184Z,23.22
2019-05-20T18:49:25.089Z,20.62
2019-05-20T18:51:53.781Z,17.50
2019-05-20T18:54:25.332Z,16.70
2019-05-20T18:56:54.016Z,17.82
2019-05-20T18:59:22.264Z,17.37
2019-05-20T19:02:03.856Z,16.12
2019-05-20T19:04:21.130Z,16.93
2019-05-20T19:06:49.608Z,17.23
2019-05-20T19:09:18.508Z,14.47
2019-05-20T19:11:46.772Z,14.68
2019-05-20T19:14:15.052Z,15.98
2019-05-20T19:16:43.469Z,15.98
2019-05-20T19:19:11.741Z,16.52
2019-05-20T19:21:39.978Z,19.65
2019-05-20T19:24:08.232Z,19.00
2019-05-20T19:26:36.478Z,19.80
2019-05-20T19:29:04.747Z,19.17
2019-05-20T19:31:33.063Z,14.75
2019-05-20T19:34:01.339Z,15.58
2019-05-20T19:36:29.581Z,15.32
2019-05-20T19:38:57.870Z,13.55
2019-05-20T19:41:26.168Z,13.70
2019-05-20T19:43:54.426Z,14.13
2019-05-20T19:46:22.744Z,13.53
2019-05-20T19:48:51.000Z,12.47
2019-05-20T19:51:19.327Z,11.88
2019-05-20T19:53:47.589Z,13.88
2019-05-20T19:56:15.848Z,14.90
2019-05-20T19:58:44.105Z,14.90
2019-05-20T20:01:12.375Z,13.83
2019-05-20T20:03:40.694Z,12.95
2019-05-20T20:06:08.956Z,13.40
2019-05-20T20:08:37.225Z,13.32
2019-05-20T20:11:05.488Z,13.45
2019-05-20T20:13:34.610Z,12.90
2019-05-20T20:16:03.076Z,13.88
2019-05-20T20:18:31.371Z,14.90
2019-05-20T20:20:59.643Z,14.23
2019-05-20T20:23:27.896Z,15.78
2019-05-20T20:25:56.144Z,16.40
2019-05-20T20:28:24.408Z,16.27
2019-05-20T20:30:52.660Z,16.37
2019-05-20T20:33:20.916Z,17.52
2019-05-20T20:35:49.186Z,19.10
2019-05-20T20:38:17.477Z,17.87
2019-05-20T20:40:45.724Z,17.98
2019-05-20T20:43:13.987Z,18.17
2019-05-20T20:45:42.248Z,21.00
2019-05-20T20:48:10.496Z,19.95
2019-05-20T20:50:38.740Z,21.42
2019-05-20T20:53:07.016Z,19.87
2019-05-20T20:55:35.533Z,20.85
2019-05-20T20:58:03.793Z,20.37
2019-05-20T21:00:32.044Z,20.85
2019-05-20T21:03:00.304Z,21.60
2019-05-20T21:05:28.546Z,22.13
2019-05-20T21:07:56.802Z,21.48
2019-05-20T21:10:25.052Z,23.85
2019-05-20T21:12:53.357Z,23.90
2019-05-20T21:15:21.628Z,23.25
2019-05-20T21:17:49.876Z,22.65
2019-05-20T21:20:18.130Z,23.02
2019-05-20T21:22:46.376Z,22.10
2019-05-20T21:25:14.647Z,20.02
2019-05-20T21:27:42.956Z,19.90
2019-05-20T21:30:11.214Z,17.90
2019-05-20T21:32:39.457Z,17.17
2019-05-20T21:35:07.712Z,13.83
2019-05-20T21:37:35.964Z,11.08
2019-05-20T21:40:04.760Z,10.93
2019-05-20T21:42:33.020Z,10.85
2019-05-20T21:45:01.280Z,9.53
2019-05-20T21:47:29.588Z,9.70
2019-05-20T21:49:57.849Z,10.03
2019-05-20T21:52:26.098Z,9.53
2019-05-20T21:54:54.351Z,9.50
2019-05-20T21:57:22.596Z,11.03
2019-05-20T21:59:50.862Z,11.55
2019-05-20T22:02:19.104Z,10.95
2019-05-20T22:04:47.362Z,12.82
2019-05-20T22:07:15.636Z,14.90
2019-05-20T22:09:43.954Z,12.63
2019-05-20T22:12:12.198Z,9.53
2019-05-20T22:14:40.444Z,11.78
2019-05-20T22:17:08.696Z,10.75
2019-05-20T22:19:36.965Z,12.20
2019-05-20T22:22:12.810Z,12.98
2019-05-20T22:24:41.069Z,13.60
2019-05-20T22:27:09.313Z,14.78
2019-05-20T22:29:37.673Z,16.12
2019-05-20T22:32:05.918Z,16.48
2019-05-20T22:34:34.182Z,16.45
2019-05-20T22:37:02.428Z,17.50
2019-05-20T22:39:30.688Z,16.70
2019-05-20T22:41:58.933Z,16.05
2019-05-20T22:44:27.192Z,15.55
2019-05-20T22:46:55.441Z,16.55
2019-05-20T22:49:23.713Z,17.07
2019-05-20T22:51:51.956Z,17.67
2019-05-20T22:54:20.208Z,16.32
2019-05-20T22:56:48.463Z,16.02
2019-05-20T22:59:16.715Z,15.95
2019-05-20T23:01:44.966Z,14.05
2019-05-20T23:04:13.213Z,15.88
2019-05-20T23:06:41.471Z,14.87
2019-05-20T23:09:10.978Z,15.15
2019-05-20T23:11:39.541Z,16.40
2019-05-20T23:14:07.788Z,14.95
2019-05-20T23:16:36.052Z,15.08
2019-05-20T23:19:04.299Z,15.08
2019-05-20T23:21:32.565Z,15.88
2019-05-20T23:24:02.922Z,14.58
2019-05-20T23:26:31.184Z,16.37
2019-05-20T23:28:59.465Z,16.55
2019-05-20T23:31:27.725Z,15.95
2019-05-20T23:34:10.363Z,15.55
2019-05-20T23:36:25.978Z,16.00
2019-05-20T23:38:54.287Z,15.55
2019-05-20T23:41:22.544Z,15.35
2019-05-20T23:43:50.817Z,15.18
2019-05-20T23:46:19.070Z,16.67
2019-05-20T23:48:47.309Z,15.25
2019-05-20T23:51:15.569Z,15.08
2019-05-20T23:53:43.821Z,13.38
2019-05-20T23:56:12.077Z,13.50
2019-05-20T23:58:40.328Z,12.20
